Time;durP1;ratioP1;P1;durP2;ratioP2;P2;SDS_P1;SDS_P2;PMS_P1;PMS_P2;Temp;Humidity;BMP_temperature;BMP_pressure;BME280_temperature;BME280_humidity;BME280_pressure;Samples;Min_cycle;Max_cycle;Signal;HPM_P1;HPM_P2
2021/12/24 00:01:22;;;;;;;;;33.20;25.40;;;;;7.87;49.64;99240.44;5067427;28;8955;-75
2021/12/24 00:03:51;;;;;;;;;26.20;24.00;;;;;7.85;49.45;99238.72;5031006;28;8860;-74
2021/12/24 00:06:20;;;;;;;;;23.80;20.40;;;;;7.99;49.65;99239.63;5065812;28;8968;-76
2021/12/24 00:08:49;;;;;;;;;26.80;23.80;;;;;7.98;49.48;99231.00;5062817;28;8859;-74
2021/12/24 00:11:18;;;;;;;;;31.00;29.60;;;;;8.08;48.76;99231.91;5045634;28;8981;-75
2021/12/24 00:13:49;;;;;;;;;26.40;25.00;;;;;7.79;49.75;99223.97;5011506;28;8967;-75
2021/12/24 00:16:23;;;;;;;;;26.80;23.00;;;;;7.80;49.99;99223.09;4990898;28;8824;-75
2021/12/24 00:18:57;;;;;;;;;24.20;20.80;;;;;7.88;49.31;99224.03;5065176;28;9628;-73
2021/12/24 00:35:31;;;;;;;;;24.00;22.00;;;;;7.47;50.79;99198.72;5048352;28;8861;-74
2021/12/24 00:38:03;;;;;;;;;22.60;21.20;;;;;7.38;50.93;99198.63;5046062;28;8845;-73
2021/12/24 00:40:34;;;;;;;;;26.20;22.20;;;;;7.39;50.89;99195.16;5051472;28;8881;-74
2021/12/24 00:43:04;;;;;;;;;31.00;26.00;;;;;7.37;50.88;99184.81;5034308;28;9543;-73
2021/12/24 00:45:35;;;;;;;;;26.20;21.80;;;;;7.36;51.03;99196.03;4984305;28;9599;-73
2021/12/24 00:48:08;;;;;;;;;28.00;27.20;;;;;7.21;51.06;99193.34;5049166;28;8857;-76
2021/12/24 00:50:50;;;;;;;;;27.40;23.60;;;;;7.32;51.40;99190.81;5014333;28;8883;-75
2021/12/24 00:56:09;;;;;;;;;21.40;20.20;;;;;7.38;51.24;99193.44;5055394;28;8863;-73
2021/12/24 00:58:39;;;;;;;;;19.80;18.00;;;;;7.43;50.91;99189.16;5014240;28;8862;-74
2021/12/24 01:01:10;;;;;;;;;25.60;22.00;;;;;7.36;50.94;99184.78;5038826;28;8870;-74
2021/12/24 01:03:41;;;;;;;;;20.40;18.60;;;;;7.38;50.60;99185.66;5048766;28;9600;-74
2021/12/24 01:06:10;;;;;;;;;30.40;25.20;;;;;7.35;51.09;99186.53;5031122;28;8874;-75
2021/12/24 01:08:40;;;;;;;;;22.60;21.80;;;;;7.36;50.76;99180.47;5052617;28;8886;-75
2021/12/24 01:11:10;;;;;;;;;24.60;21.00;;;;;7.42;50.88;99170.13;5069807;28;8898;-74
2021/12/24 01:13:40;;;;;;;;;21.80;20.40;;;;;7.31;51.32;99171.78;5051665;28;8860;-74
2021/12/24 01:16:18;;;;;;;;;18.20;17.40;;;;;7.42;50.38;99174.44;5051578;28;8917;-74
2021/12/24 01:18:57;;;;;;;;;20.60;20.60;;;;;7.53;50.34;99172.78;5034122;28;9566;-75
2021/12/24 01:21:41;;;;;;;;;22.00;20.40;;;;;7.44;50.72;99167.53;5034595;28;8879;-74
2021/12/24 01:24:15;;;;;;;;;22.20;19.40;;;;;7.45;50.66;99165.81;5059877;28;8855;-73
2021/12/24 01:26:52;;;;;;;;;15.40;14.00;;;;;7.47;50.96;99164.97;5037290;28;8867;-75
2021/12/24 01:29:42;;;;;;;;;24.80;21.40;;;;;7.42;50.87;99164.06;5085189;28;9670;-74
2021/12/24 01:37:58;;;;;;;;;18.80;18.80;;;;;7.49;51.36;99134.72;5017068;28;8873;-74
2021/12/24 01:40:40;;;;;;;;;18.80;18.80;;;;;7.54;50.54;99135.63;5001188;28;8864;-74
2021/12/24 01:43:09;;;;;;;;;17.80;17.80;;;;;7.61;50.63;99133.91;4990542;28;8998;-74
2021/12/24 01:45:38;;;;;;;;;19.60;18.00;;;;;7.42;51.07;99132.94;4990449;28;8852;-74
2021/12/24 01:48:09;;;;;;;;;18.20;15.20;;;;;7.41;51.29;99116.53;4990728;28;8848;-74
2021/12/24 01:50:43;;;;;;;;;18.40;15.80;;;;;7.38;51.08;99110.44;4973950;28;8888;-73
2021/12/24 01:53:12;;;;;;;;;19.00;17.60;;;;;7.56;51.27;99099.28;4974124;28;9585;-73
2021/12/24 01:55:45;;;;;;;;;17.80;16.00;;;;;7.50;50.60;99097.53;4959350;28;8859;-75
2021/12/24 01:58:14;;;;;;;;;15.20;15.20;;;;;7.71;50.28;99096.78;4990294;28;9680;-73
2021/12/24 02:00:45;;;;;;;;;24.20;21.80;;;;;7.58;51.08;99094.97;4973809;28;8998;-75
2021/12/24 02:03:14;;;;;;;;;19.40;18.20;;;;;7.64;50.47;99094.13;4990290;28;8872;-74
2021/12/24 02:05:45;;;;;;;;;20.00;15.80;;;;;7.59;50.79;99088.91;4990086;28;8856;-74
2021/12/24 02:08:15;;;;;;;;;19.60;18.20;;;;;7.55;51.16;99085.44;4957860;28;8887;-76
2021/12/24 02:10:50;;;;;;;;;20.00;18.00;;;;;7.71;50.35;99083.78;4989859;28;8975;-76
2021/12/24 02:13:21;;;;;;;;;16.40;14.60;;;;;7.56;50.84;99082.00;4948141;28;8878;-73
2021/12/24 02:16:05;;;;;;;;;20.60;18.00;;;;;7.70;50.73;99073.41;4986610;28;8849;-73
2021/12/24 02:29:45;;;;;;;;;19.40;19.40;;;;;7.88;50.20;99067.38;5006070;28;8856;-75
2021/12/24 02:32:14;;;;;;;;;20.80;19.00;;;;;7.77;50.83;99076.03;4989654;28;8860;-75
2021/12/24 02:34:43;;;;;;;;;15.80;14.80;;;;;7.99;49.84;99063.94;4973640;28;8856;-75
2021/12/24 02:37:14;;;;;;;;;23.00;20.20;;;;;7.89;49.77;99067.41;4987739;28;8841;-73
2021/12/24 02:39:43;;;;;;;;;15.40;14.80;;;;;7.99;50.38;99070.88;4989226;28;8878;-74
2021/12/24 02:42:15;;;;;;;;;16.40;14.80;;;;;8.02;49.70;99067.44;4989336;28;8844;-73
2021/12/24 02:44:48;;;;;;;;;16.40;16.40;;;;;8.09;50.13;99054.47;4989853;28;8871;-74
2021/12/24 02:47:39;;;;;;;;;16.40;15.20;;;;;7.89;50.14;99058.75;4992355;28;8842;-74
2021/12/24 02:55:42;;;;;;;;;14.40;14.40;;;;;7.83;50.24;99050.97;5066498;28;8848;-74
2021/12/24 02:58:11;;;;;;;;;18.40;16.60;;;;;7.83;50.29;99053.56;5066100;28;8848;-74
2021/12/24 03:00:39;;;;;;;;;18.80;17.80;;;;;7.86;50.61;99056.13;5045783;28;8887;-75
2021/12/24 03:03:08;;;;;;;;;18.80;17.20;;;;;7.76;50.59;99053.50;5049095;28;8844;-75
2021/12/24 03:05:37;;;;;;;;;16.80;16.60;;;;;7.86;50.15;99033.63;5047358;28;9620;-74
2021/12/24 03:08:08;;;;;;;;;13.80;13.40;;;;;7.85;50.19;99041.44;5049732;28;8925;-75
2021/12/24 03:10:37;;;;;;;;;15.80;14.40;;;;;7.87;50.08;99040.56;5065338;28;8874;-74
2021/12/24 03:13:06;;;;;;;;;18.80;17.00;;;;;7.83;50.75;99043.16;5049062;28;8872;-75
2021/12/24 03:15:35;;;;;;;;;15.40;14.80;;;;;7.86;50.27;99033.63;5064235;28;8852;-74
2021/12/24 03:18:04;;;;;;;;;16.20;14.20;;;;;7.76;50.04;99027.56;5065752;28;8824;-75
2021/12/24 03:20:35;;;;;;;;;13.80;13.80;;;;;8.01;49.95;99022.41;5046404;28;8893;-74
2021/12/24 03:23:09;;;;;;;;;12.00;11.20;;;;;8.03;49.73;99009.44;5007865;28;8862;-73
2021/12/24 03:25:40;;;;;;;;;10.80;10.80;;;;;7.93;49.77;99019.81;4996382;28;8965;-74
2021/12/24 03:28:08;;;;;;;;;15.20;13.80;;;;;7.97;50.22;99026.72;4968805;28;8874;-74
2021/12/24 03:30:37;;;;;;;;;13.60;10.80;;;;;8.13;50.08;99040.63;4969831;28;8912;-74
2021/12/24 03:33:06;;;;;;;;;14.80;11.40;;;;;8.17;49.34;99038.88;4985837;28;8935;-73
2021/12/24 03:35:34;;;;;;;;;14.60;14.00;;;;;8.07;50.16;99037.13;4985600;28;8905;-75
2021/12/24 03:38:03;;;;;;;;;14.20;13.80;;;;;8.18;49.67;99033.69;4969322;28;8862;-75
2021/12/24 03:40:32;;;;;;;;;11.80;11.00;;;;;8.33;49.50;99034.56;4969893;28;8955;-75
2021/12/24 03:43:02;;;;;;;;;17.00;14.60;;;;;8.43;49.45;99035.44;4985731;28;8854;-74
2021/12/24 03:45:37;;;;;;;;;15.80;13.60;;;;;8.56;49.00;99039.78;4985635;28;8976;-75
2021/12/24 03:48:16;;;;;;;;;11.60;11.40;;;;;8.60;48.71;99031.13;4985539;28;8846;-74
2021/12/24 03:50:52;;;;;;;;;15.60;13.60;;;;;8.72;48.94;99033.69;4985296;28;9596;-76
2021/12/24 03:56:07;;;;;;;;;16.40;16.40;;;;;8.90;48.08;99040.63;4969292;28;9596;-75
2021/12/24 03:58:38;;;;;;;;;14.60;11.40;;;;;8.97;47.67;99037.13;4997464;28;8870;-74
2021/12/24 04:01:36;;;;;;;;;17.20;17.20;;;;;8.89;48.22;99028.47;4993032;28;8955;-76
2021/12/24 04:04:31;;;;;;;;;16.00;15.00;;;;;8.82;47.96;99029.34;4969586;28;8935;-75
2021/12/24 04:07:20;;;;;;;;;14.80;12.80;;;;;8.86;48.02;99025.88;4969687;28;9000;-75
2021/12/24 04:10:17;;;;;;;;;15.80;15.40;;;;;8.77;48.76;99031.09;4969761;28;8881;-74
2021/12/24 04:13:04;;;;;;;;;15.60;12.60;;;;;8.76;48.17;99024.16;4969855;28;8885;-76
2021/12/24 04:15:34;;;;;;;;;19.40;14.60;;;;;8.63;49.10;99025.06;4959363;28;8906;-75
2021/12/24 04:18:11;;;;;;;;;14.40;13.60;;;;;8.38;49.61;99025.91;4930578;29;8977;-75
2021/12/24 04:26:13;;;;;;;;;18.60;17.40;;;;;8.57;48.84;99013.78;4929180;29;8854;-74
2021/12/24 04:28:43;;;;;;;;;16.60;14.60;;;;;8.68;48.55;99025.94;4904178;29;8894;-74
2021/12/24 04:31:13;;;;;;;;;17.60;14.60;;;;;8.73;48.49;99012.06;4931226;29;8870;-74
2021/12/24 04:33:47;;;;;;;;;69.00;55.25;;;;;8.88;49.03;99024.13;4930742;29;8908;-75
2021/12/24 04:36:36;;;;;;;;;18.20;14.80;;;;;8.71;48.49;99024.16;4934051;28;8900;-74
2021/12/24 04:39:32;;;;;;;;;16.60;15.20;;;;;8.74;48.50;99021.56;4901722;29;8883;-74
2021/12/24 05:02:03;;;;;;;;;19.40;18.60;;;;;8.25;50.32;99007.72;4986609;28;8978;-74
2021/12/24 05:04:38;;;;;;;;;15.00;15.00;;;;;8.32;50.43;99005.13;5032560;28;8862;-75
2021/12/24 05:07:16;;;;;;;;;14.20;14.20;;;;;8.24;50.20;99005.97;5024836;28;8866;-74
2021/12/24 05:09:45;;;;;;;;;15.60;14.60;;;;;8.32;50.53;98997.34;5025960;28;8875;-74
2021/12/24 05:12:15;;;;;;;;;20.00;17.20;;;;;8.28;50.12;99007.72;5028900;28;9077;-76
2021/12/24 05:14:45;;;;;;;;;15.60;15.60;;;;;8.38;49.73;99012.06;4992326;28;8863;-75
2021/12/24 05:17:51;;;;;;;;;20.40;18.20;;;;;8.42;49.99;99008.63;5021625;28;8834;-75
2021/12/24 05:23:42;;;;;;;;;54.25;45.50;;;;;8.77;49.17;99010.28;4947242;28;8878;-73
2021/12/24 05:26:10;;;;;;;;;29.80;26.60;;;;;8.76;49.06;99003.38;4947353;28;8862;-75
2021/12/24 05:28:40;;;;;;;;;18.20;16.40;;;;;8.84;48.51;99009.41;4946811;28;8962;-74
2021/12/24 05:31:15;;;;;;;;;14.20;14.20;;;;;8.79;49.27;99003.38;4946511;28;9764;-75
2021/12/24 05:33:44;;;;;;;;;23.40;21.80;;;;;8.83;49.06;98999.00;4947109;28;9009;-74
2021/12/24 05:36:12;;;;;;;;;20.60;18.20;;;;;8.91;48.71;98995.53;4962790;28;9018;-75
2021/12/24 05:38:41;;;;;;;;;16.60;16.60;;;;;8.81;49.61;99000.75;4946825;28;8883;-74
2021/12/24 05:41:10;;;;;;;;;18.20;17.00;;;;;8.85;48.71;98992.09;4946490;28;8937;-76
2021/12/24 05:43:40;;;;;;;;;17.60;17.60;;;;;8.79;48.92;98998.19;4946808;28;8895;-76
2021/12/24 05:46:10;;;;;;;;;19.60;19.60;;;;;8.65;49.43;99000.78;4962533;28;8909;-75
2021/12/24 05:48:48;;;;;;;;;17.80;16.00;;;;;8.73;49.08;98993.84;4962616;28;8883;-75
2021/12/24 05:51:19;;;;;;;;;19.40;15.40;;;;;8.62;49.71;98990.41;4946303;28;8920;-75
2021/12/24 05:54:11;;;;;;;;;19.20;15.80;;;;;8.57;49.67;98985.22;4972831;28;8910;-75
2021/12/24 05:56:42;;;;;;;;;15.20;14.00;;;;;8.65;49.74;98984.34;5058379;28;8863;-74
2021/12/24 05:59:17;;;;;;;;;20.00;19.60;;;;;8.59;50.44;98974.81;5062092;28;8872;-75
2021/12/24 06:01:48;;;;;;;;;24.60;20.40;;;;;8.42;50.97;98979.19;5021918;28;9546;-75
2021/12/24 06:04:17;;;;;;;;;21.00;18.80;;;;;8.39;50.35;98977.38;5065565;28;8867;-75
2021/12/24 06:06:45;;;;;;;;;14.60;14.40;;;;;8.27;50.70;98972.22;5035231;28;8955;-76
2021/12/24 06:09:14;;;;;;;;;17.20;14.80;;;;;8.46;50.17;98983.50;5045198;28;8856;-76
2021/12/24 06:11:42;;;;;;;;;16.60;15.00;;;;;8.41;51.05;98975.66;5069833;28;8929;-75
2021/12/24 06:14:12;;;;;;;;;19.00;17.20;;;;;8.45;50.27;98973.97;5069585;28;8868;-75
2021/12/24 06:16:49;;;;;;;;;16.20;15.20;;;;;8.34;50.83;98967.03;5064345;28;8923;-75
2021/12/24 06:19:19;;;;;;;;;19.00;17.80;;;;;8.34;50.89;98959.22;5062557;28;8876;-74
2021/12/24 06:21:48;;;;;;;;;18.40;16.20;;;;;8.24;51.48;98960.13;5026348;28;8837;-74
2021/12/24 06:24:18;;;;;;;;;17.80;16.40;;;;;8.37;50.29;98954.03;5027259;28;8872;-75
2021/12/24 06:26:46;;;;;;;;;16.20;16.20;;;;;8.48;50.76;98948.84;5010583;28;8879;-74
2021/12/24 06:29:18;;;;;;;;;14.20;14.00;;;;;8.47;51.07;98954.03;4994074;28;8876;-74
2021/12/24 06:31:49;;;;;;;;;23.00;15.20;;;;;8.32;51.14;98947.97;5009995;28;9618;-75
2021/12/24 06:34:18;;;;;;;;;13.00;13.00;;;;;8.45;50.43;98948.88;4993923;28;8845;-75
2021/12/24 06:36:49;;;;;;;;;19.00;16.00;;;;;8.54;49.97;98943.66;5026553;28;8865;-76
2021/12/24 06:39:17;;;;;;;;;18.60;15.20;;;;;8.59;49.93;98951.44;4993931;28;8970;-74
2021/12/24 06:41:46;;;;;;;;;15.20;14.40;;;;;8.57;50.06;98954.03;4980959;28;8857;-74
2021/12/24 06:44:15;;;;;;;;;19.60;18.00;;;;;8.60;50.34;98966.16;5009947;28;8868;-74
2021/12/24 06:46:44;;;;;;;;;17.00;16.60;;;;;8.65;49.85;98980.00;4973643;28;8948;-75
2021/12/24 06:49:14;;;;;;;;;17.40;15.60;;;;;8.80;49.90;98988.63;4997949;28;8864;-74
2021/12/24 06:51:43;;;;;;;;;21.60;19.20;;;;;8.83;50.11;98976.50;4997968;28;8920;-74
2021/12/24 06:54:11;;;;;;;;;19.40;19.40;;;;;9.02;50.02;98972.09;5028775;28;8846;-75
2021/12/24 06:56:46;;;;;;;;;20.00;18.00;;;;;9.06;49.81;98981.63;5029403;28;8842;-75
2021/12/24 06:59:15;;;;;;;;;19.40;18.80;;;;;9.18;49.54;98976.34;4996955;28;8862;-74
2021/12/24 07:01:45;;;;;;;;;19.80;19.40;;;;;9.31;48.59;98981.53;5012092;28;8866;-74
2021/12/24 07:04:15;;;;;;;;;22.00;21.00;;;;;9.41;49.12;98982.34;5029122;28;8866;-75
2021/12/24 07:06:45;;;;;;;;;17.80;16.20;;;;;9.44;48.06;98988.41;5023440;28;8898;-74
2021/12/24 07:09:15;;;;;;;;;20.20;18.20;;;;;9.54;48.00;98990.06;5012795;28;9747;-75
2021/12/24 07:11:44;;;;;;;;;30.00;24.20;;;;;9.48;48.07;98989.25;4998965;28;8894;-75
2021/12/24 07:14:13;;;;;;;;;23.80;19.60;;;;;9.52;48.33;98988.34;5023988;28;8884;-75
2021/12/24 07:16:47;;;;;;;;;24.60;19.80;;;;;9.52;48.24;98989.22;4998514;28;8880;-74
2021/12/24 07:19:17;;;;;;;;;20.20;19.80;;;;;9.61;47.91;98985.69;5048294;28;8959;-75
2021/12/24 07:21:45;;;;;;;;;30.40;28.00;;;;;9.62;48.91;98977.03;5056665;28;9655;-74
2021/12/24 07:24:14;;;;;;;;;21.20;20.60;;;;;9.70;48.52;98966.56;5054182;28;8880;-74
2021/12/24 07:26:43;;;;;;;;;17.40;16.60;;;;;9.73;48.18;98959.59;5046266;28;8885;-74
2021/12/24 07:29:12;;;;;;;;;21.00;19.40;;;;;9.64;48.30;98954.47;5043562;28;8856;-74
2021/12/24 07:31:41;;;;;;;;;21.20;21.20;;;;;9.63;48.27;98955.31;5049866;28;8971;-75
2021/12/24 07:34:09;;;;;;;;;23.20;21.00;;;;;9.81;48.31;98959.56;5068042;28;8883;-73
2021/12/24 07:36:40;;;;;;;;;18.80;17.60;;;;;9.83;48.23;98949.09;5033160;28;8882;-75
2021/12/24 07:39:09;;;;;;;;;10.40;7.80;;;;;10.01;48.50;98941.16;5029689;28;8866;-75
2021/12/24 07:41:41;;;;;;;;;14.80;13.00;;;;;10.03;48.08;98955.03;5041169;28;8968;-74
2021/12/24 07:44:10;;;;;;;;;15.60;14.60;;;;;10.24;47.92;98955.72;5039251;28;8983;-69
2021/12/24 07:46:45;;;;;;;;;15.80;15.00;;;;;10.38;47.80;98956.50;5029912;28;8955;-68
2021/12/24 07:49:29;;;;;;;;;11.80;11.20;;;;;10.51;47.42;98955.50;5054917;28;8867;-70
2021/12/24 07:52:08;;;;;;;;;11.80;10.80;;;;;10.59;47.32;98947.63;5054225;28;9614;-71
2021/12/24 07:54:40;;;;;;;;;8.40;8.40;;;;;10.71;46.68;98955.28;5059849;28;8863;-72
2021/12/24 07:57:09;;;;;;;;;8.60;7.80;;;;;10.84;46.17;98953.41;5024742;28;8916;-73
2021/12/24 07:59:39;;;;;;;;;12.20;10.80;;;;;11.03;45.85;98950.59;5033487;28;8840;-70
2021/12/24 08:02:11;;;;;;;;;9.20;9.20;;;;;11.20;45.88;98946.03;5049636;28;8894;-74
2021/12/24 08:04:40;;;;;;;;;10.80;10.60;;;;;11.38;45.33;98951.88;5011994;28;8888;-72
2021/12/24 08:07:10;;;;;;;;;9.00;8.40;;;;;11.48;45.62;98945.69;5038839;28;8856;-70
2021/12/24 08:09:39;;;;;;;;;8.80;8.40;;;;;11.63;44.75;98940.22;5052039;28;8855;-70
2021/12/24 08:12:10;;;;;;;;;9.20;8.20;;;;;11.69;44.43;98940.13;5067848;28;8852;-73
2021/12/24 08:14:39;;;;;;;;;13.80;10.00;;;;;11.81;44.63;98938.22;5049359;28;8882;-69
2021/12/24 08:17:08;;;;;;;;;11.00;10.20;;;;;11.87;43.98;98925.06;5049213;28;9051;-74
2021/12/24 08:19:38;;;;;;;;;9.00;9.00;;;;;11.73;43.68;98935.72;5061544;28;8858;-75
2021/12/24 08:22:07;;;;;;;;;9.00;9.00;;;;;11.83;44.85;98931.22;5063456;28;8848;-74
2021/12/24 08:24:37;;;;;;;;;13.80;12.80;;;;;12.05;43.96;98934.41;5043164;28;8858;-75
2021/12/24 08:27:07;;;;;;;;;14.40;12.80;;;;;12.18;43.68;98943.75;5029016;28;10033;-75
2021/12/24 08:29:36;;;;;;;;;14.00;11.80;;;;;12.28;43.69;98940.09;5012757;28;8896;-73
2021/12/24 08:32:06;;;;;;;;;14.00;10.80;;;;;12.37;43.00;98940.84;5039837;28;8906;-74
2021/12/24 08:34:34;;;;;;;;;10.20;10.20;;;;;12.51;43.05;98946.66;5012271;28;8984;-74
2021/12/24 08:37:04;;;;;;;;;16.80;13.60;;;;;12.64;43.05;98942.94;5045092;28;8865;-74
2021/12/24 08:39:33;;;;;;;;;15.80;13.40;;;;;12.63;42.39;98930.75;5034597;28;8852;-77
2021/12/24 08:42:03;;;;;;;;;12.00;10.20;;;;;12.65;42.64;98926.34;5045126;28;8904;-75
2021/12/24 08:44:32;;;;;;;;;11.60;11.00;;;;;12.51;42.35;98940.56;5012302;28;8981;-74
2021/12/24 08:47:03;;;;;;;;;13.40;10.00;;;;;12.68;42.24;98944.63;5019085;28;8986;-80
2021/12/24 08:49:33;;;;;;;;;10.80;10.80;;;;;12.81;42.04;98923.44;5059819;28;8844;-79
2021/12/24 08:52:02;;;;;;;;;10.20;10.20;;;;;12.88;42.27;98930.28;5046784;28;8997;-81
2021/12/24 08:54:31;;;;;;;;;15.80;14.00;;;;;12.88;42.56;98927.66;4980587;28;8951;-81
2021/12/24 08:57:01;;;;;;;;;11.00;11.00;;;;;12.95;42.27;98924.03;5038252;28;8874;-82
2021/12/24 08:59:31;;;;;;;;;12.80;11.00;;;;;13.05;42.36;98924.72;5063788;28;8866;-81
2021/12/24 09:02:01;;;;;;;;;12.20;11.60;;;;;13.12;41.82;98917.56;5032488;28;9005;-81
2021/12/24 09:04:31;;;;;;;;;11.20;10.40;;;;;12.87;41.63;98912.84;5037850;28;8864;-80
2021/12/24 09:07:00;;;;;;;;;13.00;12.00;;;;;13.04;41.85;98917.75;5060606;28;8897;-79
2021/12/24 09:09:30;;;;;;;;;14.40;11.40;;;;;13.05;42.32;98903.78;5007536;28;8884;-80
2021/12/24 09:11:59;;;;;;;;;10.00;10.00;;;;;13.10;42.37;98912.41;5041190;28;8996;-81
2021/12/24 09:14:28;;;;;;;;;9.00;9.00;;;;;12.95;41.33;98905.72;5039819;28;8945;-79
2021/12/24 09:17:02;;;;;;;;;4.40;4.00;;;;;13.07;41.85;98894.97;5059327;28;8863;-79
2021/12/24 09:19:32;;;;;;;;;12.20;11.40;;;;;13.16;42.10;98896.56;5026057;28;8954;-78
2021/12/24 09:22:02;;;;;;;;;10.40;10.20;;;;;13.19;41.66;98893.84;4983905;28;8856;-81
2021/12/24 09:24:31;;;;;;;;;13.00;10.80;;;;;13.26;42.07;98890.19;5036253;28;8955;-81
2021/12/24 09:27:00;;;;;;;;;11.60;10.60;;;;;13.03;42.04;98884.63;5068584;28;8879;-80
2021/12/24 09:29:29;;;;;;;;;11.20;10.80;;;;;13.02;41.34;98877.66;5053467;28;8955;-81
2021/12/24 09:32:06;;;;;;;;;10.40;9.20;;;;;13.13;42.35;98873.03;5057390;28;9570;-79
2021/12/24 09:34:35;;;;;;;;;9.40;9.40;;;;;13.10;42.30;98870.50;5044827;28;8963;-82
2021/12/24 09:37:04;;;;;;;;;12.40;10.40;;;;;13.08;42.39;98859.22;5043140;28;8871;-80
2021/12/24 09:39:34;;;;;;;;;7.40;6.60;;;;;13.17;41.27;98855.50;5034843;28;8866;-78
2021/12/24 09:42:03;;;;;;;;;9.00;9.00;;;;;13.20;40.90;98864.16;5037198;28;8897;-80
2021/12/24 09:44:33;;;;;;;;;9.20;9.20;;;;;13.30;41.55;98864.84;5021177;28;8874;-80
2021/12/24 09:47:02;;;;;;;;;9.40;8.80;;;;;13.25;41.58;98850.97;4991605;28;9221;-78
2021/12/24 09:49:33;;;;;;;;;14.20;11.80;;;;;13.39;41.72;98842.84;5006744;28;8926;-80
2021/12/24 09:52:03;;;;;;;;;9.60;9.00;;;;;13.50;41.88;98845.22;5018713;28;8974;-81
2021/12/24 09:54:32;;;;;;;;;8.40;7.60;;;;;13.49;41.25;98835.63;5015828;28;8914;-80
2021/12/24 09:57:01;;;;;;;;;10.00;9.80;;;;;13.57;41.59;98833.66;5014380;28;8860;-83
2021/12/24 09:59:30;;;;;;;;;12.80;11.20;;;;;13.61;41.83;98840.56;5053785;28;8882;-79
2021/12/24 10:02:01;;;;;;;;;9.20;8.20;;;;;13.58;41.27;98843.25;5036639;28;8850;-80
2021/12/24 10:04:34;;;;;;;;;8.40;8.00;;;;;13.73;41.41;98835.03;5021331;28;8886;-82
2021/12/24 10:07:05;;;;;;;;;8.80;8.80;;;;;13.78;41.13;98832.28;5019524;28;8952;-80
2021/12/24 10:09:35;;;;;;;;;8.00;6.40;;;;;13.62;41.52;98826.56;5022064;28;8846;-79
2021/12/24 10:12:07;;;;;;;;;9.00;8.60;;;;;13.82;41.39;98816.44;5043281;28;8851;-80
2021/12/24 10:14:41;;;;;;;;;10.20;6.80;;;;;13.62;41.27;98809.09;5058618;28;9039;-81
2021/12/24 10:17:16;;;;;;;;;10.00;9.80;;;;;13.71;40.25;98823.72;5038297;28;8880;-83
2021/12/24 10:19:48;;;;;;;;;8.40;8.40;;;;;13.81;41.25;98804.22;5032293;28;8865;-80
2021/12/24 10:22:19;;;;;;;;;5.40;4.00;;;;;13.95;40.47;98809.13;5034177;28;8862;-81
2021/12/24 10:25:00;;;;;;;;;7.80;6.20;;;;;14.03;40.66;98812.41;5034670;28;8850;-81
2021/12/24 10:27:32;;;;;;;;;7.40;7.20;;;;;14.19;40.91;98817.25;5026818;28;8982;-81
2021/12/24 10:30:01;;;;;;;;;6.00;5.60;;;;;14.14;40.47;98803.38;5031072;28;8862;-82
2021/12/24 10:32:38;;;;;;;;;7.80;5.20;;;;;14.05;40.21;98807.13;4999694;28;8842;-85
2021/12/24 10:35:19;;;;;;;;;4.80;4.00;;;;;14.16;40.12;98794.59;5031680;28;8884;-81
2021/12/24 10:38:11;;;;;;;;;5.20;5.20;;;;;14.04;40.09;98806.28;5028380;28;9023;-82
2021/12/24 10:40:50;;;;;;;;;5.40;5.20;;;;;14.12;40.48;98799.94;4987047;28;12165;-78
2021/12/24 10:43:25;;;;;;;;;6.00;5.80;;;;;14.30;40.37;98796.81;5018712;28;8856;-78
2021/12/24 10:46:09;;;;;;;;;7.40;6.20;;;;;14.47;39.83;98792.88;5011134;28;8884;-76
2021/12/24 10:48:46;;;;;;;;;9.60;6.20;;;;;14.45;40.13;98792.06;5023203;28;8846;-76
2021/12/24 10:51:22;;;;;;;;;7.60;7.60;;;;;14.66;39.71;98785.38;5030200;28;8850;-77
2021/12/24 10:54:03;;;;;;;;;10.60;6.40;;;;;14.72;39.37;98782.56;4997786;28;8890;-76
2021/12/24 10:56:31;;;;;;;;;8.80;7.20;;;;;14.74;39.14;98788.63;4981873;28;8846;-79
2021/12/24 10:59:01;;;;;;;;;11.60;10.00;;;;;14.74;38.96;98780.75;5029915;28;8966;-78
2021/12/24 11:01:29;;;;;;;;;9.40;9.40;;;;;14.89;39.46;98787.28;5046787;28;8854;-75
2021/12/24 11:03:58;;;;;;;;;10.00;10.00;;;;;14.79;39.11;98779.69;5030335;28;9611;-77
2021/12/24 11:06:32;;;;;;;;;9.40;9.20;;;;;14.86;38.83;98772.50;5046808;28;9008;-76
2021/12/24 11:09:03;;;;;;;;;11.60;10.20;;;;;14.95;39.06;98773.97;5032741;28;8873;-78
2021/12/24 11:11:35;;;;;;;;;9.80;9.20;;;;;14.90;39.11;98765.41;5051335;28;8885;-76
2021/12/24 11:14:04;;;;;;;;;8.80;8.00;;;;;15.02;38.91;98759.75;5031649;28;9029;-77
2021/12/24 11:16:34;;;;;;;;;7.80;7.20;;;;;14.89;38.90;98766.28;4997615;28;8854;-76
2021/12/24 11:19:04;;;;;;;;;4.40;4.40;;;;;14.93;38.85;98753.03;5030998;28;9628;-78
2021/12/24 11:21:36;;;;;;;;;8.20;8.20;;;;;14.90;39.27;98765.41;5031411;28;9004;-78
2021/12/24 11:24:05;;;;;;;;;6.80;5.00;;;;;14.95;39.13;98758.22;5030148;28;8890;-78
2021/12/24 11:26:40;;;;;;;;;13.80;10.00;;;;;14.93;39.42;98754.78;5030846;28;8858;-77
2021/12/24 11:29:09;;;;;;;;;11.00;10.40;;;;;15.00;39.48;98751.91;5031387;28;8997;-79
2021/12/24 11:31:38;;;;;;;;;6.00;5.20;;;;;14.76;39.40;98753.56;5031179;28;8969;-78
2021/12/24 11:34:08;;;;;;;;;10.60;7.00;;;;;14.88;39.29;98759.34;5013551;28;8854;-76
2021/12/24 11:36:39;;;;;;;;;9.80;6.40;;;;;15.00;39.37;98751.06;5014478;28;8965;-76
2021/12/24 11:39:07;;;;;;;;;13.00;9.60;;;;;14.85;39.47;98751.56;5047459;28;8892;-76
2021/12/24 11:41:38;;;;;;;;;6.60;6.60;;;;;14.99;39.66;98744.97;5030821;28;8900;-77
2021/12/24 11:44:08;;;;;;;;;7.40;6.20;;;;;14.89;39.42;98746.16;5038303;28;9569;-77
2021/12/24 11:46:39;;;;;;;;;9.60;9.60;;;;;14.95;39.83;98758.22;4978657;28;8866;-80
2021/12/24 11:49:08;;;;;;;;;4.60;4.60;;;;;14.91;40.03;98738.22;4945921;28;8995;-77
2021/12/24 11:51:40;;;;;;;;;11.00;10.80;;;;;14.90;39.98;98747.88;4994540;28;8952;-76
2021/12/24 11:54:12;;;;;;;;;7.00;6.20;;;;;14.77;40.21;98734.25;5019988;28;8876;-78
2021/12/24 11:56:42;;;;;;;;;8.20;7.20;;;;;14.71;40.19;98744.97;4995878;28;8854;-79
2021/12/24 11:59:12;;;;;;;;;6.80;6.80;;;;;14.86;40.32;98746.25;5024920;28;8866;-79
2021/12/24 12:01:43;;;;;;;;;7.80;6.40;;;;;14.89;40.27;98746.16;5029707;28;8913;-77
2021/12/24 12:04:14;;;;;;;;;5.00;5.00;;;;;14.90;40.24;98745.25;5046639;28;8868;-77
2021/12/24 12:06:44;;;;;;;;;8.60;7.00;;;;;14.88;40.04;98744.44;5048545;28;8925;-77
2021/12/24 12:09:15;;;;;;;;;8.00;6.00;;;;;15.09;40.10;98753.41;5005537;28;8851;-80
2021/12/24 12:11:45;;;;;;;;;8.00;7.00;;;;;15.23;39.71;98749.47;4926032;28;8878;-77
2021/12/24 12:14:27;;;;;;;;;8.00;8.00;;;;;15.17;39.68;98747.91;4989369;28;8878;-77
2021/12/24 12:16:57;;;;;;;;;8.20;8.20;;;;;15.24;39.57;98740.72;5005411;28;8993;-77
2021/12/24 12:19:31;;;;;;;;;6.00;6.00;;;;;15.15;39.79;98753.22;5021658;28;8906;-77
2021/12/24 12:22:15;;;;;;;;;10.40;7.20;;;;;15.14;39.70;98737.50;5005549;28;8883;-77
2021/12/24 12:27:37;;;;;;;;;9.40;7.00;;;;;15.36;39.85;98732.41;4973075;28;8870;-68
2021/12/24 12:30:24;;;;;;;;;5.40;5.40;;;;;15.43;39.87;98739.19;5005679;28;8893;-77
2021/12/24 12:33:03;;;;;;;;;7.00;7.00;;;;;15.43;39.83;98728.69;4983733;28;8959;-77
2021/12/24 12:35:38;;;;;;;;;7.20;6.80;;;;;15.58;39.73;98720.28;5019196;28;8842;-76
2021/12/24 12:38:28;;;;;;;;;7.00;5.00;;;;;15.57;39.49;98718.53;5005610;28;8886;-77
2021/12/24 12:41:30;;;;;;;;;6.20;6.20;;;;;15.62;39.14;98712.28;5014277;28;8872;-78
2021/12/24 12:44:02;;;;;;;;;5.00;4.00;;;;;15.64;39.74;98698.19;5040907;28;9570;-79
2021/12/24 12:46:34;;;;;;;;;10.80;8.00;;;;;15.70;39.92;98707.63;4996471;28;8979;-77
2021/12/24 12:49:05;;;;;;;;;5.80;5.60;;;;;15.82;39.40;98706.34;5028078;28;8870;-77
2021/12/24 12:51:59;;;;;;;;;8.00;6.60;;;;;15.72;39.09;98704.00;4977191;28;9008;-76
2021/12/24 12:54:37;;;;;;;;;8.80;8.60;;;;;15.67;39.39;98713.84;5029437;28;8866;-77
2021/12/24 12:57:15;;;;;;;;;6.60;6.00;;;;;15.72;39.55;98704.00;5026424;28;8849;-77
2021/12/24 13:00:19;;;;;;;;;6.60;5.60;;;;;15.64;38.92;98700.81;5036890;28;9635;-76
2021/12/24 13:03:10;;;;;;;;;7.80;7.00;;;;;15.70;38.81;98707.63;5029759;28;8935;-77
2021/12/24 13:06:04;;;;;;;;;7.40;5.80;;;;;15.81;38.74;98707.28;5011548;28;8866;-79
2021/12/24 13:08:36;;;;;;;;;6.20;6.00;;;;;15.91;38.77;98709.50;5013503;28;8970;-81
2021/12/24 13:11:09;;;;;;;;;9.20;8.40;;;;;15.82;38.59;98711.59;5029566;28;8920;-78
2021/12/24 13:13:55;;;;;;;;;10.00;9.20;;;;;15.86;38.98;98707.94;5047071;28;9646;-77